<?xml version="1.0" encoding="UTF-8" standalone="no" ?>
<gpx xmlns="http://www.topografix.com/GPX/1/1" xmlns:xsi="http://www.w3.org/2001/XMLSchema-instance" xsi:schemaLocation="http://www.topografix.com/GPX/1/1 http://www.topografix.com/GPX/1/1/gpx.xsd" version="1.1" creator="VisuGPX - https://www.visugpx.com">
  <metadata>
    <name>Chaponnay </name>
  </metadata>
  <trk>
    <name><![CDATA[Chapo]]></name>
    <trkseg>
      <trkpt lat="45.64079" lon="4.92733">
        <ele>152.018</ele>
        <time>2005-09-17T11:35:49Z</time>
      </trkpt>
      <trkpt lat="45.64006" lon="4.92844">
        <ele>126.098</ele>
        <time>2005-09-17T11:35:59Z</time>
      </trkpt>
      <trkpt lat="45.6389" lon="4.92913">
        <ele>126.017</ele>
        <time>2005-09-17T11:36:10Z</time>
      </trkpt>
      <trkpt lat="45.63766" lon="4.92964">
        <ele>128.008</ele>
        <time>2005-09-17T11:36:26Z</time>
      </trkpt>
      <trkpt lat="45.63744" lon="4.92945">
        <ele>128.013</ele>
        <time>2005-09-17T11:36:32Z</time>
      </trkpt>
      <trkpt lat="45.63714" lon="4.92464">
        <ele>142.066</ele>
        <time>2005-09-17T11:44:07Z</time>
      </trkpt>
      <trkpt lat="45.63725" lon="4.92342">
        <ele>141.042</ele>
        <time>2005-09-17T11:44:25Z</time>
      </trkpt>
      <trkpt lat="45.63693" lon="4.92312">
        <ele>141.066</ele>
        <time>2005-09-17T11:44:37Z</time>
      </trkpt>
      <trkpt lat="45.63669" lon="4.92346">
        <ele>142.022</ele>
        <time>2005-09-17T11:44:48Z</time>
      </trkpt>
      <trkpt lat="45.63596" lon="4.92342">
        <ele>143.081</ele>
        <time>2005-09-17T11:45:04Z</time>
      </trkpt>
      <trkpt lat="45.63476" lon="4.92387">
        <ele>144.081</ele>
        <time>2005-09-17T11:45:31Z</time>
      </trkpt>
      <trkpt lat="45.6345" lon="4.92439">
        <ele>141.05</ele>
        <time>2005-09-17T11:45:39Z</time>
      </trkpt>
      <trkpt lat="45.63407" lon="4.9261">
        <ele>144.034</ele>
        <time>2005-09-17T11:46:02Z</time>
      </trkpt>
      <trkpt lat="45.63285" lon="4.92786">
        <ele>149.055</ele>
        <time>2005-09-17T11:46:39Z</time>
      </trkpt>
      <trkpt lat="45.63229" lon="4.92838">
        <ele>151.01</ele>
        <time>2005-09-17T11:46:54Z</time>
      </trkpt>
      <trkpt lat="45.63201" lon="4.92913">
        <ele>151.008</ele>
        <time>2005-09-17T11:47:07Z</time>
      </trkpt>
      <trkpt lat="45.63182" lon="4.92928">
        <ele>153.025</ele>
        <time>2005-09-17T11:47:12Z</time>
      </trkpt>
      <trkpt lat="45.63109" lon="4.92945">
        <ele>154.038</ele>
        <time>2005-09-17T11:47:29Z</time>
      </trkpt>
      <trkpt lat="45.6309" lon="4.92748">
        <ele>151.024</ele>
        <time>2005-09-17T11:47:57Z</time>
      </trkpt>
      <trkpt lat="45.63058" lon="4.92685">
        <ele>152.018</ele>
        <time>2005-09-17T11:48:06Z</time>
      </trkpt>
      <trkpt lat="45.62959" lon="4.92739">
        <ele>155.054</ele>
        <time>2005-09-17T11:48:27Z</time>
      </trkpt>
      <trkpt lat="45.6285" lon="4.92728">
        <ele>158.023</ele>
        <time>2005-09-17T11:48:51Z</time>
      </trkpt>
      <trkpt lat="45.62723" lon="4.92784">
        <ele>161.093</ele>
        <time>2005-09-17T11:49:17Z</time>
      </trkpt>
      <trkpt lat="45.62717" lon="4.92831">
        <ele>162.062</ele>
        <time>2005-09-17T11:49:29Z</time>
      </trkpt>
      <trkpt lat="45.62354" lon="4.92876">
        <ele>186.024</ele>
        <time>2005-09-17T11:51:19Z</time>
      </trkpt>
      <trkpt lat="45.62298" lon="4.92919">
        <ele>196.004</ele>
        <time>2005-09-17T11:51:54Z</time>
      </trkpt>
      <trkpt lat="45.62251" lon="4.93003">
        <ele>202.014</ele>
        <time>2005-09-17T11:52:30Z</time>
      </trkpt>
      <trkpt lat="45.62225" lon="4.93009">
        <ele>206.008</ele>
        <time>2005-09-17T11:52:42Z</time>
      </trkpt>
      <trkpt lat="45.62124" lon="4.92926">
        <ele>217.094</ele>
        <time>2005-09-17T11:53:37Z</time>
      </trkpt>
      <trkpt lat="45.61957" lon="4.92872">
        <ele>243.037</ele>
        <time>2005-09-17T11:55:29Z</time>
      </trkpt>
      <trkpt lat="45.62002" lon="4.9264">
        <ele>217.093</ele>
        <time>2005-09-17T11:56:01Z</time>
      </trkpt>
      <trkpt lat="45.62038" lon="4.92585">
        <ele>212.067</ele>
        <time>2005-09-17T11:56:07Z</time>
      </trkpt>
      <trkpt lat="45.62111" lon="4.92546">
        <ele>205.093</ele>
        <time>2005-09-17T11:56:17Z</time>
      </trkpt>
      <trkpt lat="45.62165" lon="4.92471">
        <ele>200.072</ele>
        <time>2005-09-17T11:56:28Z</time>
      </trkpt>
      <trkpt lat="45.62187" lon="4.92361">
        <ele>193.082</ele>
        <time>2005-09-17T11:56:45Z</time>
      </trkpt>
      <trkpt lat="45.62161" lon="4.92245">
        <ele>183.091</ele>
        <time>2005-09-17T11:56:57Z</time>
      </trkpt>
      <trkpt lat="45.62234" lon="4.9214">
        <ele>181.039</ele>
        <time>2005-09-17T11:57:13Z</time>
      </trkpt>
      <trkpt lat="45.6218" lon="4.92037">
        <ele>182.001</ele>
        <time>2005-09-17T11:57:34Z</time>
      </trkpt>
      <trkpt lat="45.62159" lon="4.92033">
        <ele>183.021</ele>
        <time>2005-09-17T11:57:39Z</time>
      </trkpt>
      <trkpt lat="45.61966" lon="4.9217">
        <ele>202.008</ele>
        <time>2005-09-17T11:58:53Z</time>
      </trkpt>
      <trkpt lat="45.61946" lon="4.92164">
        <ele>203.065</ele>
        <time>2005-09-17T11:59:06Z</time>
      </trkpt>
      <trkpt lat="45.61938" lon="4.92012">
        <ele>217.098</ele>
        <time>2005-09-17T11:59:58Z</time>
      </trkpt>
      <trkpt lat="45.61914" lon="4.91962">
        <ele>224.044</ele>
        <time>2005-09-17T12:00:28Z</time>
      </trkpt>
      <trkpt lat="45.61908" lon="4.92007">
        <ele>229.058</ele>
        <time>2005-09-17T12:00:53Z</time>
      </trkpt>
      <trkpt lat="45.61785" lon="4.92106">
        <ele>242.044</ele>
        <time>2005-09-17T12:02:08Z</time>
      </trkpt>
      <trkpt lat="45.61764" lon="4.92153">
        <ele>243.043</ele>
        <time>2005-09-17T12:02:24Z</time>
      </trkpt>
      <trkpt lat="45.61729" lon="4.92183">
        <ele>244.093</ele>
        <time>2005-09-17T12:02:36Z</time>
      </trkpt>
      <trkpt lat="45.61674" lon="4.92209">
        <ele>251.042</ele>
        <time>2005-09-17T12:03:02Z</time>
      </trkpt>
      <trkpt lat="45.6159" lon="4.92142">
        <ele>263.086</ele>
        <time>2005-09-17T12:03:55Z</time>
      </trkpt>
      <trkpt lat="45.61468" lon="4.92121">
        <ele>272.06</ele>
        <time>2005-09-17T12:05:00Z</time>
      </trkpt>
      <trkpt lat="45.61395" lon="4.9213">
        <ele>278.026</ele>
        <time>2005-09-17T12:05:38Z</time>
      </trkpt>
      <trkpt lat="45.61382" lon="4.92059">
        <ele>285.008</ele>
        <time>2005-09-17T12:06:14Z</time>
      </trkpt>
      <trkpt lat="45.61348" lon="4.92012">
        <ele>289.05</ele>
        <time>2005-09-17T12:06:42Z</time>
      </trkpt>
      <trkpt lat="45.61249" lon="4.9205">
        <ele>295.063</ele>
        <time>2005-09-17T12:07:19Z</time>
      </trkpt>
      <trkpt lat="45.61142" lon="4.92048">
        <ele>301.089</ele>
        <time>2005-09-17T12:07:56Z</time>
      </trkpt>
      <trkpt lat="45.61144" lon="4.9196">
        <ele>298.063</ele>
        <time>2005-09-17T12:08:10Z</time>
      </trkpt>
      <trkpt lat="45.61197" lon="4.91788">
        <ele>297.069</ele>
        <time>2005-09-17T12:08:39Z</time>
      </trkpt>
      <trkpt lat="45.61107" lon="4.91649">
        <ele>301.028</ele>
        <time>2005-09-17T12:09:22Z</time>
      </trkpt>
      <trkpt lat="45.61109" lon="4.91615">
        <ele>299.088</ele>
        <time>2005-09-17T12:09:29Z</time>
      </trkpt>
      <trkpt lat="45.61176" lon="4.91522">
        <ele>252.027</ele>
        <time>2005-09-17T12:10:22Z</time>
      </trkpt>
      <trkpt lat="45.61343" lon="4.91134">
        <ele>223.016</ele>
        <time>2005-09-17T12:11:01Z</time>
      </trkpt>
      <trkpt lat="45.6144" lon="4.91209">
        <ele>222.076</ele>
        <time>2005-09-17T12:11:03Z</time>
      </trkpt>
      <trkpt lat="45.61431" lon="4.91147">
        <ele>216.013</ele>
        <time>2005-09-17T12:11:14Z</time>
      </trkpt>
      <trkpt lat="45.6142" lon="4.91162">
        <ele>213.008</ele>
        <time>2005-09-17T12:11:16Z</time>
      </trkpt>
      <trkpt lat="45.61388" lon="4.9113">
        <ele>213.013</ele>
        <time>2005-09-17T12:11:28Z</time>
      </trkpt>
      <trkpt lat="45.61429" lon="4.9111">
        <ele>209.076</ele>
        <time>2005-09-17T12:11:55Z</time>
      </trkpt>
      <trkpt lat="45.61536" lon="4.90945">
        <ele>204.082</ele>
        <time>2005-09-17T12:12:19Z</time>
      </trkpt>
      <trkpt lat="45.61562" lon="4.90866">
        <ele>206.036</ele>
        <time>2005-09-17T12:12:28Z</time>
      </trkpt>
      <trkpt lat="45.61523" lon="4.90829">
        <ele>213.072</ele>
        <time>2005-09-17T12:12:57Z</time>
      </trkpt>
      <trkpt lat="45.61444" lon="4.90799">
        <ele>228.031</ele>
        <time>2005-09-17T12:14:08Z</time>
      </trkpt>
      <trkpt lat="45.61354" lon="4.9084">
        <ele>247.011</ele>
        <time>2005-09-17T12:15:43Z</time>
      </trkpt>
      <trkpt lat="45.6133" lon="4.9087">
        <ele>253.09</ele>
        <time>2005-09-17T12:16:15Z</time>
      </trkpt>
      <trkpt lat="45.61255" lon="4.90915">
        <ele>257.026</ele>
        <time>2005-09-17T12:17:01Z</time>
      </trkpt>
      <trkpt lat="45.61101" lon="4.90934">
        <ele>260.047</ele>
        <time>2005-09-17T12:17:50Z</time>
      </trkpt>
      <trkpt lat="45.61036" lon="4.90917">
        <ele>266.011</ele>
        <time>2005-09-17T12:18:25Z</time>
      </trkpt>
      <trkpt lat="45.61024" lon="4.90844">
        <ele>284.008</ele>
        <time>2005-09-17T12:19:44Z</time>
      </trkpt>
      <trkpt lat="45.6097" lon="4.90808">
        <ele>286.024</ele>
        <time>2005-09-17T12:20:18Z</time>
      </trkpt>
      <trkpt lat="45.60972" lon="4.90662">
        <ele>264.077</ele>
        <time>2005-09-17T12:21:34Z</time>
      </trkpt>
      <trkpt lat="45.61064" lon="4.90544">
        <ele>263.063</ele>
        <time>2005-09-17T12:21:48Z</time>
      </trkpt>
      <trkpt lat="45.61247" lon="4.90613">
        <ele>263.037</ele>
        <time>2005-09-17T12:21:52Z</time>
      </trkpt>
      <trkpt lat="45.61283" lon="4.90598">
        <ele>264.083</ele>
        <time>2005-09-17T12:21:59Z</time>
      </trkpt>
      <trkpt lat="45.61283" lon="4.90559">
        <ele>262.072</ele>
        <time>2005-09-17T12:22:03Z</time>
      </trkpt>
      <trkpt lat="45.61307" lon="4.90531">
        <ele>259.072</ele>
        <time>2005-09-17T12:22:08Z</time>
      </trkpt>
      <trkpt lat="45.61395" lon="4.90518">
        <ele>251.011</ele>
        <time>2005-09-17T12:22:23Z</time>
      </trkpt>
      <trkpt lat="45.61328" lon="4.90364">
        <ele>257.083</ele>
        <time>2005-09-17T12:23:16Z</time>
      </trkpt>
      <trkpt lat="45.61236" lon="4.90282">
        <ele>270.025</ele>
        <time>2005-09-17T12:24:20Z</time>
      </trkpt>
      <trkpt lat="45.61154" lon="4.90256">
        <ele>269.017</ele>
        <time>2005-09-17T12:24:53Z</time>
      </trkpt>
      <trkpt lat="45.61075" lon="4.90259">
        <ele>267.008</ele>
        <time>2005-09-17T12:25:11Z</time>
      </trkpt>
      <trkpt lat="45.60916" lon="4.90308">
        <ele>264.05</ele>
        <time>2005-09-17T12:25:31Z</time>
      </trkpt>
      <trkpt lat="45.60893" lon="4.90259">
        <ele>266.043</ele>
        <time>2005-09-17T12:25:40Z</time>
      </trkpt>
      <trkpt lat="45.60888" lon="4.90186">
        <ele>272.069</ele>
        <time>2005-09-17T12:26:05Z</time>
      </trkpt>
      <trkpt lat="45.60873" lon="4.90183">
        <ele>274.093</ele>
        <time>2005-09-17T12:26:15Z</time>
      </trkpt>
      <trkpt lat="45.60815" lon="4.90243">
        <ele>280.039</ele>
        <time>2005-09-17T12:26:56Z</time>
      </trkpt>
      <trkpt lat="45.60768" lon="4.90349">
        <ele>293.018</ele>
        <time>2005-09-17T12:27:45Z</time>
      </trkpt>
      <trkpt lat="45.6073" lon="4.90385">
        <ele>300.078</ele>
        <time>2005-09-17T12:28:23Z</time>
      </trkpt>
      <trkpt lat="45.60697" lon="4.90323">
        <ele>312.057</ele>
        <time>2005-09-17T12:29:23Z</time>
      </trkpt>
      <trkpt lat="45.60614" lon="4.90349">
        <ele>320.076</ele>
        <time>2005-09-17T12:32:07Z</time>
      </trkpt>
      <trkpt lat="45.60633" lon="4.90156">
        <ele>324.09</ele>
        <time>2005-09-17T12:35:29Z</time>
      </trkpt>
      <trkpt lat="45.60627" lon="4.90106">
        <ele>322.019</ele>
        <time>2005-09-17T12:35:36Z</time>
      </trkpt>
      <trkpt lat="45.60536" lon="4.89896">
        <ele>322.008</ele>
        <time>2005-09-17T12:36:12Z</time>
      </trkpt>
      <trkpt lat="45.60562" lon="4.89786">
        <ele>317.099</ele>
        <time>2005-09-17T12:36:39Z</time>
      </trkpt>
      <trkpt lat="45.6062" lon="4.89731">
        <ele>311.052</ele>
        <time>2005-09-17T12:36:42Z</time>
      </trkpt>
      <trkpt lat="45.60633" lon="4.89696">
        <ele>310.098</ele>
        <time>2005-09-17T12:36:45Z</time>
      </trkpt>
      <trkpt lat="45.60618" lon="4.89632">
        <ele>308.092</ele>
        <time>2005-09-17T12:36:52Z</time>
      </trkpt>
      <trkpt lat="45.60599" lon="4.89628">
        <ele>310.098</ele>
        <time>2005-09-17T12:36:55Z</time>
      </trkpt>
      <trkpt lat="45.60575" lon="4.89557">
        <ele>307.057</ele>
        <time>2005-09-17T12:37:07Z</time>
      </trkpt>
      <trkpt lat="45.60526" lon="4.89475">
        <ele>312.067</ele>
        <time>2005-09-17T12:37:47Z</time>
      </trkpt>
      <trkpt lat="45.60481" lon="4.89286">
        <ele>329.086</ele>
        <time>2005-09-17T12:39:09Z</time>
      </trkpt>
      <trkpt lat="45.60451" lon="4.89284">
        <ele>332.015</ele>
        <time>2005-09-17T12:39:15Z</time>
      </trkpt>
      <trkpt lat="45.60468" lon="4.89229">
        <ele>328.065</ele>
        <time>2005-09-17T12:39:26Z</time>
      </trkpt>
      <trkpt lat="45.60472" lon="4.8904">
        <ele>312.011</ele>
        <time>2005-09-17T12:39:48Z</time>
      </trkpt>
      <trkpt lat="45.60687" lon="4.89241">
        <ele>302.008</ele>
        <time>2005-09-17T12:40:20Z</time>
      </trkpt>
      <trkpt lat="45.60629" lon="4.88984">
        <ele>302.053</ele>
        <time>2005-09-17T12:41:00Z</time>
      </trkpt>
      <trkpt lat="45.60545" lon="4.8902">
        <ele>307.046</ele>
        <time>2005-09-17T12:41:28Z</time>
      </trkpt>
      <trkpt lat="45.60481" lon="4.89025">
        <ele>309.022</ele>
        <time>2005-09-17T12:41:53Z</time>
      </trkpt>
      <trkpt lat="45.60388" lon="4.89016">
        <ele>309.026</ele>
        <time>2005-09-17T12:42:25Z</time>
      </trkpt>
      <trkpt lat="45.60348" lon="4.88997">
        <ele>309.042</ele>
        <time>2005-09-17T12:42:41Z</time>
      </trkpt>
      <trkpt lat="45.60386" lon="4.88819">
        <ele>308.031</ele>
        <time>2005-09-17T12:42:55Z</time>
      </trkpt>
      <trkpt lat="45.60483" lon="4.88664">
        <ele>304.031</ele>
        <time>2005-09-17T12:43:36Z</time>
      </trkpt>
      <trkpt lat="45.60436" lon="4.88415">
        <ele>292.05</ele>
        <time>2005-09-17T12:43:59Z</time>
      </trkpt>
      <trkpt lat="45.60429" lon="4.88287">
        <ele>294.026</ele>
        <time>2005-09-17T12:44:13Z</time>
      </trkpt>
      <trkpt lat="45.60448" lon="4.88023">
        <ele>292.047</ele>
        <time>2005-09-17T12:44:59Z</time>
      </trkpt>
      <trkpt lat="45.6044" lon="4.87774">
        <ele>300.011</ele>
        <time>2005-09-17T12:45:48Z</time>
      </trkpt>
      <trkpt lat="45.60303" lon="4.87823">
        <ele>314.008</ele>
        <time>2005-09-17T12:46:57Z</time>
      </trkpt>
      <trkpt lat="45.60268" lon="4.87748">
        <ele>309.044</ele>
        <time>2005-09-17T12:47:26Z</time>
      </trkpt>
      <trkpt lat="45.60281" lon="4.87675">
        <ele>306.077</ele>
        <time>2005-09-17T12:47:37Z</time>
      </trkpt>
      <trkpt lat="45.60127" lon="4.87776">
        <ele>299.013</ele>
        <time>2005-09-17T12:48:24Z</time>
      </trkpt>
      <trkpt lat="45.60021" lon="4.87742">
        <ele>300.077</ele>
        <time>2005-09-17T12:48:39Z</time>
      </trkpt>
      <trkpt lat="45.60043" lon="4.87705">
        <ele>297.063</ele>
        <time>2005-09-17T12:48:47Z</time>
      </trkpt>
      <trkpt lat="45.60185" lon="4.876">
        <ele>299.022</ele>
        <time>2005-09-17T12:49:12Z</time>
      </trkpt>
      <trkpt lat="45.60135" lon="4.87561">
        <ele>295.062</ele>
        <time>2005-09-17T12:49:35Z</time>
      </trkpt>
      <trkpt lat="45.60043" lon="4.87529">
        <ele>299.041</ele>
        <time>2005-09-17T12:49:58Z</time>
      </trkpt>
      <trkpt lat="45.60058" lon="4.87499">
        <ele>304.015</ele>
        <time>2005-09-17T12:50:24Z</time>
      </trkpt>
      <trkpt lat="45.60026" lon="4.87512">
        <ele>308.065</ele>
        <time>2005-09-17T12:50:47Z</time>
      </trkpt>
      <trkpt lat="45.60032" lon="4.87467">
        <ele>319.011</ele>
        <time>2005-09-17T12:52:09Z</time>
      </trkpt>
      <trkpt lat="45.59893" lon="4.87353">
        <ele>349.008</ele>
        <time>2005-09-17T12:55:12Z</time>
      </trkpt>
      <trkpt lat="45.59807" lon="4.87188">
        <ele>347.013</ele>
        <time>2005-09-17T12:55:43Z</time>
      </trkpt>
      <trkpt lat="45.59803" lon="4.87046">
        <ele>340.056</ele>
        <time>2005-09-17T12:56:04Z</time>
      </trkpt>
      <trkpt lat="45.59766" lon="4.87053">
        <ele>334.042</ele>
        <time>2005-09-17T12:56:12Z</time>
      </trkpt>
      <trkpt lat="45.59747" lon="4.87042">
        <ele>331.066</ele>
        <time>2005-09-17T12:56:15Z</time>
      </trkpt>
      <trkpt lat="45.59532" lon="4.86875">
        <ele>304.012</ele>
        <time>2005-09-17T12:56:48Z</time>
      </trkpt>
      <trkpt lat="45.5941" lon="4.86654">
        <ele>300.071</ele>
        <time>2005-09-17T12:57:42Z</time>
      </trkpt>
      <trkpt lat="45.59268" lon="4.86531">
        <ele>294.051</ele>
        <time>2005-09-17T12:58:08Z</time>
      </trkpt>
      <trkpt lat="45.59191" lon="4.86499">
        <ele>289.04</ele>
        <time>2005-09-17T12:58:19Z</time>
      </trkpt>
      <trkpt lat="45.59152" lon="4.86512">
        <ele>288.021</ele>
        <time>2005-09-17T12:58:24Z</time>
      </trkpt>
      <trkpt lat="45.59103" lon="4.86559">
        <ele>285.041</ele>
        <time>2005-09-17T12:58:32Z</time>
      </trkpt>
      <trkpt lat="45.5903" lon="4.86566">
        <ele>289.005</ele>
        <time>2005-09-17T12:58:48Z</time>
      </trkpt>
      <trkpt lat="45.59084" lon="4.86776">
        <ele>323.008</ele>
        <time>2005-09-17T13:01:24Z</time>
      </trkpt>
      <trkpt lat="45.59161" lon="4.86888">
        <ele>341.084</ele>
        <time>2005-09-17T13:03:17Z</time>
      </trkpt>
      <trkpt lat="45.5923" lon="4.87048">
        <ele>347.087</ele>
        <time>2005-09-17T13:04:12Z</time>
      </trkpt>
      <trkpt lat="45.59273" lon="4.87235">
        <ele>348.033</ele>
        <time>2005-09-17T13:05:03Z</time>
      </trkpt>
      <trkpt lat="45.59363" lon="4.87398">
        <ele>344.047</ele>
        <time>2005-09-17T13:05:42Z</time>
      </trkpt>
      <trkpt lat="45.59361" lon="4.87488">
        <ele>342.013</ele>
        <time>2005-09-17T13:05:53Z</time>
      </trkpt>
      <trkpt lat="45.59391" lon="4.87596">
        <ele>342.082</ele>
        <time>2005-09-17T13:06:11Z</time>
      </trkpt>
      <trkpt lat="45.59524" lon="4.87636">
        <ele>339.012</ele>
        <time>2005-09-17T13:06:40Z</time>
      </trkpt>
      <trkpt lat="45.59442" lon="4.87784">
        <ele>336.081</ele>
        <time>2005-09-17T13:07:06Z</time>
      </trkpt>
      <trkpt lat="45.59436" lon="4.8786">
        <ele>334.091</ele>
        <time>2005-09-17T13:07:15Z</time>
      </trkpt>
      <trkpt lat="45.59453" lon="4.87894">
        <ele>333.081</ele>
        <time>2005-09-17T13:07:21Z</time>
      </trkpt>
      <trkpt lat="45.59498" lon="4.87917">
        <ele>333.019</ele>
        <time>2005-09-17T13:07:34Z</time>
      </trkpt>
      <trkpt lat="45.59554" lon="4.879">
        <ele>332.008</ele>
        <time>2005-09-17T13:07:51Z</time>
      </trkpt>
      <trkpt lat="45.59614" lon="4.87939">
        <ele>331.021</ele>
        <time>2005-09-17T13:08:03Z</time>
      </trkpt>
      <trkpt lat="45.59691" lon="4.88016">
        <ele>331.044</ele>
        <time>2005-09-17T13:08:21Z</time>
      </trkpt>
      <trkpt lat="45.59873" lon="4.88128">
        <ele>331.02</ele>
        <time>2005-09-17T13:08:57Z</time>
      </trkpt>
      <trkpt lat="45.59923" lon="4.88314">
        <ele>331.074</ele>
        <time>2005-09-17T13:09:38Z</time>
      </trkpt>
      <trkpt lat="45.59946" lon="4.88585">
        <ele>328.08</ele>
        <time>2005-09-17T13:10:09Z</time>
      </trkpt>
      <trkpt lat="45.60135" lon="4.88658">
        <ele>345.069</ele>
        <time>2005-09-17T13:11:54Z</time>
      </trkpt>
      <trkpt lat="45.60127" lon="4.88664">
        <ele>349.059</ele>
        <time>2005-09-17T13:11:58Z</time>
      </trkpt>
      <trkpt lat="45.60185" lon="4.88671">
        <ele>350.048</ele>
        <time>2005-09-17T13:12:22Z</time>
      </trkpt>
      <trkpt lat="45.60152" lon="4.88784">
        <ele>348.055</ele>
        <time>2005-09-17T13:12:42Z</time>
      </trkpt>
      <trkpt lat="45.60116" lon="4.88847">
        <ele>351.007</ele>
        <time>2005-09-17T13:12:57Z</time>
      </trkpt>
      <trkpt lat="45.59923" lon="4.89117">
        <ele>354.017</ele>
        <time>2005-09-17T13:14:09Z</time>
      </trkpt>
      <trkpt lat="45.5983" lon="4.89181">
        <ele>343.008</ele>
        <time>2005-09-17T13:14:21Z</time>
      </trkpt>
      <trkpt lat="45.59788" lon="4.89254">
        <ele>318.057</ele>
        <time>2005-09-17T13:14:27Z</time>
      </trkpt>
      <trkpt lat="45.59719" lon="4.89321">
        <ele>319.05</ele>
        <time>2005-09-17T13:14:34Z</time>
      </trkpt>
      <trkpt lat="45.59706" lon="4.894">
        <ele>315.036</ele>
        <time>2005-09-17T13:14:42Z</time>
      </trkpt>
      <trkpt lat="45.59406" lon="4.89664">
        <ele>286.05</ele>
        <time>2005-09-17T13:15:15Z</time>
      </trkpt>
      <trkpt lat="45.59373" lon="4.8966">
        <ele>284.046</ele>
        <time>2005-09-17T13:15:19Z</time>
      </trkpt>
      <trkpt lat="45.59335" lon="4.89626">
        <ele>281.015</ele>
        <time>2005-09-17T13:15:24Z</time>
      </trkpt>
      <trkpt lat="45.59311" lon="4.8963">
        <ele>278.025</ele>
        <time>2005-09-17T13:15:28Z</time>
      </trkpt>
      <trkpt lat="45.59311" lon="4.89679">
        <ele>274.094</ele>
        <time>2005-09-17T13:15:33Z</time>
      </trkpt>
      <trkpt lat="45.59343" lon="4.89782">
        <ele>265.036</ele>
        <time>2005-09-17T13:15:41Z</time>
      </trkpt>
      <trkpt lat="45.59393" lon="4.89847">
        <ele>261.017</ele>
        <time>2005-09-17T13:15:48Z</time>
      </trkpt>
      <trkpt lat="45.59386" lon="4.89874">
        <ele>259.018</ele>
        <time>2005-09-17T13:15:53Z</time>
      </trkpt>
      <trkpt lat="45.59352" lon="4.899">
        <ele>253.008</ele>
        <time>2005-09-17T13:15:58Z</time>
      </trkpt>
      <trkpt lat="45.59315" lon="4.89986">
        <ele>248.095</ele>
        <time>2005-09-17T13:16:05Z</time>
      </trkpt>
      <trkpt lat="45.59315" lon="4.90117">
        <ele>237.028</ele>
        <time>2005-09-17T13:16:13Z</time>
      </trkpt>
      <trkpt lat="45.59298" lon="4.90201">
        <ele>233.054</ele>
        <time>2005-09-17T13:16:18Z</time>
      </trkpt>
      <trkpt lat="45.59234" lon="4.90349">
        <ele>221.068</ele>
        <time>2005-09-17T13:16:28Z</time>
      </trkpt>
      <trkpt lat="45.59159" lon="4.90452">
        <ele>224.064</ele>
        <time>2005-09-17T13:16:41Z</time>
      </trkpt>
      <trkpt lat="45.59148" lon="4.90705">
        <ele>219.083</ele>
        <time>2005-09-17T13:17:06Z</time>
      </trkpt>
      <trkpt lat="45.59116" lon="4.90883">
        <ele>223.053</ele>
        <time>2005-09-17T13:17:29Z</time>
      </trkpt>
      <trkpt lat="45.59137" lon="4.90898">
        <ele>225.022</ele>
        <time>2005-09-17T13:17:37Z</time>
      </trkpt>
      <trkpt lat="45.59249" lon="4.90889">
        <ele>239.041</ele>
        <time>2005-09-17T13:18:30Z</time>
      </trkpt>
      <trkpt lat="45.59322" lon="4.90844">
        <ele>247.081</ele>
        <time>2005-09-17T13:19:12Z</time>
      </trkpt>
      <trkpt lat="45.59436" lon="4.90754">
        <ele>271.009</ele>
        <time>2005-09-17T13:21:02Z</time>
      </trkpt>
      <trkpt lat="45.59444" lon="4.90677">
        <ele>283.008</ele>
        <time>2005-09-17T13:21:58Z</time>
      </trkpt>
      <trkpt lat="45.5947" lon="4.90636">
        <ele>288.096</ele>
        <time>2005-09-17T13:22:32Z</time>
      </trkpt>
      <trkpt lat="45.59725" lon="4.90568">
        <ele>279.019</ele>
        <time>2005-09-17T13:23:48Z</time>
      </trkpt>
      <trkpt lat="45.59884" lon="4.90598">
        <ele>276.025</ele>
        <time>2005-09-17T13:24:27Z</time>
      </trkpt>
      <trkpt lat="45.60051" lon="4.9066">
        <ele>279.069</ele>
        <time>2005-09-17T13:24:58Z</time>
      </trkpt>
      <trkpt lat="45.60028" lon="4.90692">
        <ele>279.045</ele>
        <time>2005-09-17T13:25:06Z</time>
      </trkpt>
      <trkpt lat="45.60058" lon="4.90679">
        <ele>281.044</ele>
        <time>2005-09-17T13:25:15Z</time>
      </trkpt>
      <trkpt lat="45.60105" lon="4.90703">
        <ele>279.034</ele>
        <time>2005-09-17T13:25:29Z</time>
      </trkpt>
      <trkpt lat="45.60116" lon="4.90726">
        <ele>280.043</ele>
        <time>2005-09-17T13:25:31Z</time>
      </trkpt>
      <trkpt lat="45.60101" lon="4.90739">
        <ele>280.022</ele>
        <time>2005-09-17T13:25:33Z</time>
      </trkpt>
      <trkpt lat="45.60105" lon="4.90763">
        <ele>284.062</ele>
        <time>2005-09-17T13:25:40Z</time>
      </trkpt>
      <trkpt lat="45.60172" lon="4.90911">
        <ele>299.008</ele>
        <time>2005-09-17T13:27:02Z</time>
      </trkpt>
      <trkpt lat="45.60264" lon="4.90881">
        <ele>295.008</ele>
        <time>2005-09-17T13:27:28Z</time>
      </trkpt>
      <trkpt lat="45.60262" lon="4.90846">
        <ele>298.084</ele>
        <time>2005-09-17T13:27:38Z</time>
      </trkpt>
      <trkpt lat="45.60294" lon="4.90838">
        <ele>305.017</ele>
        <time>2005-09-17T13:28:11Z</time>
      </trkpt>
      <trkpt lat="45.60333" lon="4.90846">
        <ele>311.063</ele>
        <time>2005-09-17T13:28:46Z</time>
      </trkpt>
      <trkpt lat="45.60431" lon="4.90904">
        <ele>319.037</ele>
        <time>2005-09-17T13:29:57Z</time>
      </trkpt>
      <trkpt lat="45.6038" lon="4.91125">
        <ele>331.093</ele>
        <time>2005-09-17T13:31:19Z</time>
      </trkpt>
      <trkpt lat="45.60352" lon="4.91149">
        <ele>334.062</ele>
        <time>2005-09-17T13:37:05Z</time>
      </trkpt>
      <trkpt lat="45.60348" lon="4.91201">
        <ele>329.042</ele>
        <time>2005-09-17T13:37:56Z</time>
      </trkpt>
      <trkpt lat="45.60564" lon="4.9122">
        <ele>329.011</ele>
        <time>2005-09-17T13:38:30Z</time>
      </trkpt>
      <trkpt lat="45.60605" lon="4.91205">
        <ele>328.043</ele>
        <time>2005-09-17T13:38:39Z</time>
      </trkpt>
      <trkpt lat="45.60695" lon="4.91213">
        <ele>328.064</ele>
        <time>2005-09-17T13:38:58Z</time>
      </trkpt>
      <trkpt lat="45.6071" lon="4.9131">
        <ele>335.01</ele>
        <time>2005-09-17T13:39:18Z</time>
      </trkpt>
      <trkpt lat="45.60702" lon="4.91488">
        <ele>337.008</ele>
        <time>2005-09-17T13:39:50Z</time>
      </trkpt>
      <trkpt lat="45.60732" lon="4.91731">
        <ele>339.046</ele>
        <time>2005-09-17T13:40:55Z</time>
      </trkpt>
      <trkpt lat="45.60652" lon="4.9199">
        <ele>325.089</ele>
        <time>2005-09-17T13:41:19Z</time>
      </trkpt>
      <trkpt lat="45.60691" lon="4.91979">
        <ele>324.075</ele>
        <time>2005-09-17T13:41:23Z</time>
      </trkpt>
      <trkpt lat="45.60601" lon="4.92123">
        <ele>327.049</ele>
        <time>2005-09-17T13:41:58Z</time>
      </trkpt>
      <trkpt lat="45.60573" lon="4.92241">
        <ele>329.015</ele>
        <time>2005-09-17T13:42:23Z</time>
      </trkpt>
      <trkpt lat="45.60597" lon="4.92321">
        <ele>330.014</ele>
        <time>2005-09-17T13:42:36Z</time>
      </trkpt>
      <trkpt lat="45.60605" lon="4.92537">
        <ele>327.044</ele>
        <time>2005-09-17T13:43:14Z</time>
      </trkpt>
      <trkpt lat="45.60573" lon="4.92539">
        <ele>330.043</ele>
        <time>2005-09-17T13:43:23Z</time>
      </trkpt>
      <trkpt lat="45.60528" lon="4.92447">
        <ele>329.085</ele>
        <time>2005-09-17T13:43:39Z</time>
      </trkpt>
      <trkpt lat="45.60371" lon="4.92278">
        <ele>328.089</ele>
        <time>2005-09-17T13:44:17Z</time>
      </trkpt>
      <trkpt lat="45.6024" lon="4.92336">
        <ele>324.017</ele>
        <time>2005-09-17T13:44:41Z</time>
      </trkpt>
      <trkpt lat="45.60204" lon="4.924">
        <ele>319.008</ele>
        <time>2005-09-17T13:44:50Z</time>
      </trkpt>
      <trkpt lat="45.60221" lon="4.92482">
        <ele>320.07</ele>
        <time>2005-09-17T13:45:01Z</time>
      </trkpt>
      <trkpt lat="45.60339" lon="4.92724">
        <ele>299.023</ele>
        <time>2005-09-17T13:45:48Z</time>
      </trkpt>
      <trkpt lat="45.6041" lon="4.93301">
        <ele>291.039</ele>
        <time>2005-09-17T13:49:22Z</time>
      </trkpt>
      <trkpt lat="45.60575" lon="4.9314">
        <ele>307.063</ele>
        <time>2005-09-17T13:51:01Z</time>
      </trkpt>
      <trkpt lat="45.6065" lon="4.93115">
        <ele>312.029</ele>
        <time>2005-09-17T13:51:22Z</time>
      </trkpt>
      <trkpt lat="45.6071" lon="4.93112">
        <ele>310.058</ele>
        <time>2005-09-17T13:51:40Z</time>
      </trkpt>
      <trkpt lat="45.60837" lon="4.93157">
        <ele>312.068</ele>
        <time>2005-09-17T13:52:19Z</time>
      </trkpt>
      <trkpt lat="45.60951" lon="4.93179">
        <ele>316.097</ele>
        <time>2005-09-17T13:53:00Z</time>
      </trkpt>
      <trkpt lat="45.61081" lon="4.93273">
        <ele>318.068</ele>
        <time>2005-09-17T13:53:58Z</time>
      </trkpt>
      <trkpt lat="45.61092" lon="4.93518">
        <ele>320.042</ele>
        <time>2005-09-17T13:54:53Z</time>
      </trkpt>
      <trkpt lat="45.61311" lon="4.93481">
        <ele>314.026</ele>
        <time>2005-09-17T13:55:41Z</time>
      </trkpt>
      <trkpt lat="45.61438" lon="4.934">
        <ele>310.008</ele>
        <time>2005-09-17T13:56:05Z</time>
      </trkpt>
      <trkpt lat="45.61504" lon="4.93434">
        <ele>311.068</ele>
        <time>2005-09-17T13:56:21Z</time>
      </trkpt>
      <trkpt lat="45.61498" lon="4.93638">
        <ele>303.091</ele>
        <time>2005-09-17T13:57:02Z</time>
      </trkpt>
      <trkpt lat="45.61599" lon="4.9376">
        <ele>302.087</ele>
        <time>2005-09-17T13:57:14Z</time>
      </trkpt>
      <trkpt lat="45.61684" lon="4.93745">
        <ele>291.041</ele>
        <time>2005-09-17T13:57:26Z</time>
      </trkpt>
      <trkpt lat="45.61723" lon="4.9376">
        <ele>289.097</ele>
        <time>2005-09-17T13:57:35Z</time>
      </trkpt>
      <trkpt lat="45.61678" lon="4.93554">
        <ele>281.076</ele>
        <time>2005-09-17T13:58:13Z</time>
      </trkpt>
      <trkpt lat="45.61852" lon="4.93627">
        <ele>283.096</ele>
        <time>2005-09-17T13:58:45Z</time>
      </trkpt>
      <trkpt lat="45.61858" lon="4.93653">
        <ele>281.065</ele>
        <time>2005-09-17T13:58:52Z</time>
      </trkpt>
      <trkpt lat="45.62109" lon="4.93675">
        <ele>251.026</ele>
        <time>2005-09-17T13:59:41Z</time>
      </trkpt>
      <trkpt lat="45.62206" lon="4.93653">
        <ele>247.047</ele>
        <time>2005-09-17T13:59:54Z</time>
      </trkpt>
      <trkpt lat="45.62236" lon="4.93604">
        <ele>240.011</ele>
        <time>2005-09-17T14:00:01Z</time>
      </trkpt>
      <trkpt lat="45.6239" lon="4.93449">
        <ele>221.008</ele>
        <time>2005-09-17T14:00:22Z</time>
      </trkpt>
      <trkpt lat="45.62568" lon="4.93389">
        <ele>219.014</ele>
        <time>2005-09-17T14:00:50Z</time>
      </trkpt>
      <trkpt lat="45.62721" lon="4.93458">
        <ele>215.037</ele>
        <time>2005-09-17T14:01:16Z</time>
      </trkpt>
      <trkpt lat="45.62706" lon="4.93636">
        <ele>214.023</ele>
        <time>2005-09-17T14:01:41Z</time>
      </trkpt>
      <trkpt lat="45.62719" lon="4.9379">
        <ele>214.037</ele>
        <time>2005-09-17T14:02:00Z</time>
      </trkpt>
      <trkpt lat="45.62738" lon="4.93812">
        <ele>218.093</ele>
        <time>2005-09-17T14:02:07Z</time>
      </trkpt>
      <trkpt lat="45.62796" lon="4.93814">
        <ele>222.062</ele>
        <time>2005-09-17T14:02:26Z</time>
      </trkpt>
      <trkpt lat="45.62862" lon="4.93868">
        <ele>229.092</ele>
        <time>2005-09-17T14:02:53Z</time>
      </trkpt>
      <trkpt lat="45.62856" lon="4.93923">
        <ele>233.011</ele>
        <time>2005-09-17T14:03:07Z</time>
      </trkpt>
      <trkpt lat="45.62779" lon="4.93945">
        <ele>238.035</ele>
        <time>2005-09-17T14:03:35Z</time>
      </trkpt>
      <trkpt lat="45.62749" lon="4.93996">
        <ele>241.086</ele>
        <time>2005-09-17T14:03:53Z</time>
      </trkpt>
      <trkpt lat="45.6277" lon="4.94037">
        <ele>243.014</ele>
        <time>2005-09-17T14:04:05Z</time>
      </trkpt>
      <trkpt lat="45.62858" lon="4.94082">
        <ele>251.008</ele>
        <time>2005-09-17T14:04:34Z</time>
      </trkpt>
      <trkpt lat="45.62871" lon="4.94123">
        <ele>245.065</ele>
        <time>2005-09-17T14:04:45Z</time>
      </trkpt>
      <trkpt lat="45.62862" lon="4.94252">
        <ele>237.078</ele>
        <time>2005-09-17T14:04:58Z</time>
      </trkpt>
      <trkpt lat="45.62807" lon="4.94462">
        <ele>226.034</ele>
        <time>2005-09-17T14:05:14Z</time>
      </trkpt>
      <trkpt lat="45.62755" lon="4.94554">
        <ele>224.038</ele>
        <time>2005-09-17T14:05:22Z</time>
      </trkpt>
      <trkpt lat="45.62714" lon="4.94589">
        <ele>223.034</ele>
        <time>2005-09-17T14:05:27Z</time>
      </trkpt>
      <trkpt lat="45.6268" lon="4.94589">
        <ele>225.073</ele>
        <time>2005-09-17T14:05:33Z</time>
      </trkpt>
      <trkpt lat="45.62659" lon="4.94694">
        <ele>227.033</ele>
        <time>2005-09-17T14:05:50Z</time>
      </trkpt>
      <trkpt lat="45.62547" lon="4.94784">
        <ele>241.042</ele>
        <time>2005-09-17T14:07:08Z</time>
      </trkpt>
      <trkpt lat="45.62547" lon="4.95035">
        <ele>264.011</ele>
        <time>2005-09-17T14:09:15Z</time>
      </trkpt>
      <trkpt lat="45.62264" lon="4.95853">
        <ele>301.021</ele>
        <time>2005-09-17T14:14:06Z</time>
      </trkpt>
      <trkpt lat="45.62251" lon="4.95861">
        <ele>299.003</ele>
        <time>2005-09-17T14:14:10Z</time>
      </trkpt>
      <trkpt lat="45.62362" lon="4.9588">
        <ele>301.008</ele>
        <time>2005-09-17T14:14:44Z</time>
      </trkpt>
      <trkpt lat="45.62375" lon="4.95906">
        <ele>302.053</ele>
        <time>2005-09-17T14:14:52Z</time>
      </trkpt>
      <trkpt lat="45.62354" lon="4.96498">
        <ele>295.016</ele>
        <time>2005-09-17T14:16:17Z</time>
      </trkpt>
      <trkpt lat="45.62313" lon="4.96756">
        <ele>296.052</ele>
        <time>2005-09-17T14:17:01Z</time>
      </trkpt>
      <trkpt lat="45.62455" lon="4.96764">
        <ele>283.086</ele>
        <time>2005-09-17T14:17:36Z</time>
      </trkpt>
      <trkpt lat="45.62669" lon="4.96857">
        <ele>246.012</ele>
        <time>2005-09-17T14:18:05Z</time>
      </trkpt>
      <trkpt lat="45.62903" lon="4.96844">
        <ele>244.051</ele>
        <time>2005-09-17T14:18:26Z</time>
      </trkpt>
      <trkpt lat="45.62942" lon="4.96825">
        <ele>245.081</ele>
        <time>2005-09-17T14:18:32Z</time>
      </trkpt>
      <trkpt lat="45.62968" lon="4.96831">
        <ele>244.02</ele>
        <time>2005-09-17T14:18:38Z</time>
      </trkpt>
      <trkpt lat="45.63041" lon="4.96893">
        <ele>243.077</ele>
        <time>2005-09-17T14:18:56Z</time>
      </trkpt>
      <trkpt lat="45.63058" lon="4.96882">
        <ele>243.061</ele>
        <time>2005-09-17T14:19:00Z</time>
      </trkpt>
      <trkpt lat="45.63098" lon="4.96655">
        <ele>256.027</ele>
        <time>2005-09-17T14:20:01Z</time>
      </trkpt>
      <trkpt lat="45.63058" lon="4.96325">
        <ele>263.008</ele>
        <time>2005-09-17T14:21:26Z</time>
      </trkpt>
      <trkpt lat="45.63109" lon="4.9596">
        <ele>267.099</ele>
        <time>2005-09-17T14:22:42Z</time>
      </trkpt>
      <trkpt lat="45.63146" lon="4.95378">
        <ele>262.012</ele>
        <time>2005-09-17T14:24:01Z</time>
      </trkpt>
      <trkpt lat="45.63126" lon="4.95117">
        <ele>262.088</ele>
        <time>2005-09-17T14:24:36Z</time>
      </trkpt>
      <trkpt lat="45.63032" lon="4.94735">
        <ele>258.012</ele>
        <time>2005-09-17T14:25:34Z</time>
      </trkpt>
      <trkpt lat="45.63036" lon="4.94713">
        <ele>256.088</ele>
        <time>2005-09-17T14:25:38Z</time>
      </trkpt>
      <trkpt lat="45.63146" lon="4.9461">
        <ele>242.057</ele>
        <time>2005-09-17T14:25:56Z</time>
      </trkpt>
      <trkpt lat="45.63156" lon="4.9455">
        <ele>237.087</ele>
        <time>2005-09-17T14:26:01Z</time>
      </trkpt>
      <trkpt lat="45.63154" lon="4.94434">
        <ele>231.086</ele>
        <time>2005-09-17T14:26:14Z</time>
      </trkpt>
      <trkpt lat="45.63131" lon="4.94381">
        <ele>228.014</ele>
        <time>2005-09-17T14:26:20Z</time>
      </trkpt>
      <trkpt lat="45.6309" lon="4.94144">
        <ele>225.054</ele>
        <time>2005-09-17T14:26:50Z</time>
      </trkpt>
      <trkpt lat="45.63094" lon="4.94134">
        <ele>224.009</ele>
        <time>2005-09-17T14:26:53Z</time>
      </trkpt>
      <trkpt lat="45.63223" lon="4.94129">
        <ele>205.008</ele>
        <time>2005-09-17T14:27:12Z</time>
      </trkpt>
      <trkpt lat="45.63399" lon="4.94052">
        <ele>205.093</ele>
        <time>2005-09-17T14:27:42Z</time>
      </trkpt>
      <trkpt lat="45.63442" lon="4.94011">
        <ele>203.016</ele>
        <time>2005-09-17T14:27:52Z</time>
      </trkpt>
      <trkpt lat="45.63725" lon="4.93911">
        <ele>202.082</ele>
        <time>2005-09-17T14:28:50Z</time>
      </trkpt>
      <trkpt lat="45.63839" lon="4.93848">
        <ele>196.016</ele>
        <time>2005-09-17T14:29:20Z</time>
      </trkpt>
      <trkpt lat="45.63875" lon="4.93805">
        <ele>200.092</ele>
        <time>2005-09-17T14:29:37Z</time>
      </trkpt>
      <trkpt lat="45.63989" lon="4.93782">
        <ele>214.031</ele>
        <time>2005-09-17T14:30:31Z</time>
      </trkpt>
      <trkpt lat="45.64088" lon="4.9358">
        <ele>233.091</ele>
        <time>2005-09-17T14:32:11Z</time>
      </trkpt>
      <trkpt lat="45.64146" lon="4.93539">
        <ele>238.02</ele>
        <time>2005-09-17T14:32:46Z</time>
      </trkpt>
      <trkpt lat="45.64133" lon="4.93411">
        <ele>241.075</ele>
        <time>2005-09-17T14:33:15Z</time>
      </trkpt>
      <trkpt lat="45.64167" lon="4.93181">
        <ele>233.028</ele>
        <time>2005-09-17T14:33:58Z</time>
      </trkpt>
    </trkseg>
  </trk>
</gpx>